^^
Your Local Weather - Clay, NY Station Historical Data
Daily Summary for March 16, 2017 Units:  English    Metric   Both
« Previous Day
Next Day »
Daily Weekly Monthly Yearly Custom
  High: Low: Average:
Temperature: 30.6 °F 16.9 °F 24.3 °F
Dew Point: 22.7 °F 13.8 °F 17.8 °F
Humidity: 89% 55% 77%
Wind Speed: 9.0mph 0.0mph 4.7mph
Wind Gust: 17.0mph - -
Wind- - WNW
Pressure: 30.10 in 29.83 in -
Precipitation: 0.11 in    
Historical Graphs
 
 
Tabular Data for March 16, 2017
Time Temperature Dew Point Pressure Wind Wind Speed Wind Gust Humidity Rainfall Rate (Hourly) solar
00:02 21.7 °F 19.0 °F 29.83 in NW 5.0 mph 5.0 mph 89% 0.00 in 0 W/m2
00:08 21.6 °F 18.9 °F 29.83 in NW 4.0 mph 6.0 mph 89% 0.00 in 0 W/m2
00:14 21.5 °F 18.8 °F 29.83 in NW 4.0 mph 10.0 mph 89% 0.00 in 0 W/m2
00:20 21.4 °F 18.7 °F 29.83 in NNW 5.0 mph 9.0 mph 89% 0.00 in 0 W/m2
00:26 21.4 °F 18.7 °F 29.83 in NW 5.0 mph 9.0 mph 89% 0.00 in 0 W/m2
00:32 21.3 °F 18.6 °F 29.83 in WNW 5.0 mph 5.0 mph 89% 0.00 in 0 W/m2
00:38 21.4 °F 18.7 °F 29.83 in NW 4.0 mph 5.0 mph 89% 0.00 in 0 W/m2
00:44 21.3 °F 18.6 °F 29.83 in WNW 4.0 mph 6.0 mph 89% 0.00 in 0 W/m2
00:50 21.3 °F 18.6 °F 29.83 in WNW 5.0 mph 5.0 mph 89% 0.00 in 0 W/m2
00:56 21.3 °F 18.6 °F 29.83 in WNW 5.0 mph 6.0 mph 89% 0.00 in 0 W/m2
01:02 21.3 °F 18.6 °F 29.83 in NNW 5.0 mph 5.0 mph 89% 0.00 in 0 W/m2
01:08 21.3 °F 18.6 °F 29.83 in WNW 4.0 mph 5.0 mph 89% 0.00 in 0 W/m2
01:14 21.3 °F 18.6 °F 29.83 in WNW 4.0 mph 5.0 mph 89% 0.00 in 0 W/m2
01:20 21.2 °F 18.5 °F 29.83 in WNW 4.0 mph 4.0 mph 89% 0.00 in 0 W/m2
01:26 21.1 °F 18.4 °F 29.84 in NW 4.0 mph 4.0 mph 89% 0.00 in 0 W/m2
01:32 21.1 °F 18.4 °F 29.84 in NW 3.0 mph 5.0 mph 89% 0.00 in 0 W/m2
01:38 21.0 °F 18.3 °F 29.84 in NW 3.0 mph 7.0 mph 89% 0.00 in 0 W/m2
01:44 21.0 °F 18.3 °F 29.84 in WNW 4.0 mph 8.0 mph 89% 0.00 in 0 W/m2
01:50 20.9 °F 18.2 °F 29.85 in NW 5.0 mph 5.0 mph 89% 0.00 in 0 W/m2
01:56 20.7 °F 17.7 °F 29.85 in NW 6.0 mph 7.0 mph 88% 0.00 in 0 W/m2
02:02 20.6 °F 17.9 °F 29.85 in NW 5.0 mph 6.0 mph 89% 0.00 in 0 W/m2
02:08 20.5 °F 17.5 °F 29.85 in NW 5.0 mph 12.0 mph 88% 0.00 in 0 W/m2
02:14 20.2 °F 17.2 °F 29.85 in West 7.0 mph 9.0 mph 88% 0.00 in 0 W/m2
02:20 20.0 °F 17.0 °F 29.86 in NW 7.0 mph 7.0 mph 88% 0.00 in 0 W/m2
02:26 20.0 °F 17.3 °F 29.86 in NW 5.0 mph 7.0 mph 89% 0.00 in 0 W/m2
02:32 20.0 °F 17.3 °F 29.86 in NW 4.0 mph 5.0 mph 89% 0.00 in 0 W/m2
02:38 19.9 °F 17.2 °F 29.86 in WNW 4.0 mph 7.0 mph 89% 0.00 in 0 W/m2
02:44 19.9 °F 17.2 °F 29.86 in NW 4.0 mph 6.0 mph 89% 0.00 in 0 W/m2
02:50 19.9 °F 17.2 °F 29.86 in WNW 4.0 mph 6.0 mph 89% 0.00 in 0 W/m2
02:56 19.9 °F 17.2 °F 29.87 in WNW 4.0 mph 6.0 mph 89% 0.00 in 0 W/m2
03:02 19.9 °F 17.2 °F 29.87 in NW 3.0 mph 4.0 mph 89% 0.00 in 0 W/m2
03:08 19.8 °F 17.1 °F 29.87 in NW 3.0 mph 4.0 mph 89% 0.00 in 0 W/m2
03:14 19.7 °F 17.0 °F 29.87 in NW 2.0 mph 2.0 mph 89% 0.00 in 0 W/m2
03:20 19.5 °F 16.8 °F 29.87 in West 2.0 mph 2.0 mph 89% 0.00 in 0 W/m2
03:26 19.5 °F 16.8 °F 29.87 in WNW 3.0 mph 5.0 mph 89% 0.00 in 0 W/m2
03:32 19.5 °F 16.8 °F 29.87 in WNW 4.0 mph 5.0 mph 89% 0.00 in 0 W/m2
03:38 19.5 °F 16.8 °F 29.87 in WNW 4.0 mph 6.0 mph 89% 0.00 in 0 W/m2
03:44 19.4 °F 16.7 °F 29.87 in WNW 4.0 mph 6.0 mph 89% 0.00 in 0 W/m2
03:50 19.2 °F 16.5 °F 29.87 in NW 4.0 mph 9.0 mph 89% 0.00 in 0 W/m2
03:56 19.1 °F 16.4 °F 29.87 in WNW 5.0 mph 9.0 mph 89% 0.00 in 0 W/m2
04:02 19.0 °F 16.0 °F 29.87 in WNW 4.0 mph 5.0 mph 88% 0.00 in 0 W/m2
04:08 19.0 °F 16.0 °F 29.87 in WNW 3.0 mph 5.0 mph 88% 0.00 in 0 W/m2
04:14 18.7 °F 15.7 °F 29.87 in WNW 3.0 mph 3.0 mph 88% 0.00 in 0 W/m2
04:20 18.5 °F 15.5 °F 29.87 in NW 2.0 mph 2.0 mph 88% 0.00 in 0 W/m2
04:26 18.2 °F 15.2 °F 29.88 in NW 1.0 mph 2.0 mph 88% 0.00 in 0 W/m2
04:32 18.1 °F 15.1 °F 29.88 in NW 1.0 mph 2.0 mph 88% 0.00 in 0 W/m2
04:38 17.8 °F 14.8 °F 29.88 in WNW 2.0 mph 3.0 mph 88% 0.00 in 0 W/m2
04:44 17.8 °F 14.8 °F 29.88 in NNW 2.0 mph 4.0 mph 88% 0.00 in 0 W/m2
04:50 17.9 °F 14.9 °F 29.88 in WNW 2.0 mph 2.0 mph 88% 0.00 in 0 W/m2
04:56 18.1 °F 15.1 °F 29.88 in NNW 3.0 mph 3.0 mph 88% 0.00 in 0 W/m2
05:03 18.3 °F 15.3 °F 29.88 in NW 2.0 mph 3.0 mph 88% 0.00 in 0 W/m2
05:08 18.4 °F 15.4 °F 29.88 in NW 2.0 mph 3.0 mph 88% 0.00 in 0 W/m2
05:14 18.4 °F 15.4 °F 29.89 in NW 2.0 mph 5.0 mph 88% 0.00 in 0 W/m2
05:20 18.4 °F 15.4 °F 29.89 in WNW 3.0 mph 4.0 mph 88% 0.00 in 0 W/m2
05:26 18.6 °F 15.6 °F 29.89 in WNW 3.0 mph 4.0 mph 88% 0.00 in 0 W/m2
05:32 18.4 °F 15.4 °F 29.89 in WNW 2.0 mph 5.0 mph 88% 0.00 in 0 W/m2
05:38 18.3 °F 15.3 °F 29.90 in NW 3.0 mph 5.0 mph 88% 0.00 in 0 W/m2
05:44 18.3 °F 15.3 °F 29.90 in NW 3.0 mph 3.0 mph 88% 0.00 in 0 W/m2
05:50 18.1 °F 15.1 °F 29.90 in WNW 3.0 mph 3.0 mph 88% 0.00 in 0 W/m2
05:56 18.1 °F 15.1 °F 29.90 in NW 3.0 mph 7.0 mph 88% 0.00 in 0 W/m2
06:02 18.1 °F 15.1 °F 29.90 in NW 3.0 mph 3.0 mph 88% 0.00 in 0 W/m2
06:08 17.9 °F 14.9 °F 29.91 in WNW 2.0 mph 5.0 mph 88% 0.00 in 0 W/m2
06:14 17.8 °F 14.8 °F 29.90 in NW 2.0 mph 5.0 mph 88% 0.00 in 0 W/m2
06:20 17.8 °F 14.8 °F 29.91 in NNW 2.0 mph 4.0 mph 88% 0.00 in 0 W/m2
06:26 17.7 °F 14.8 °F 29.91 in WNW 2.0 mph 4.0 mph 88% 0.00 in 0 W/m2
06:32 17.6 °F 14.7 °F 29.91 in WNW 2.0 mph 4.0 mph 88% 0.00 in 0 W/m2
06:38 17.8 °F 14.8 °F 29.91 in NW 2.0 mph 4.0 mph 88% 0.00 in 0 W/m2
06:44 17.8 °F 14.8 °F 29.91 in WNW 2.0 mph 2.0 mph 88% 0.00 in 0 W/m2
06:50 17.6 °F 14.4 °F 29.92 in WNW 2.0 mph 2.0 mph 87% 0.00 in 0 W/m2
06:56 17.4 °F 14.5 °F 29.92 in WNW 1.0 mph 2.0 mph 88% 0.00 in 0 W/m2
07:02 17.3 °F 14.4 °F 29.92 in NW 2.0 mph 2.0 mph 88% 0.00 in 0 W/m2
07:08 17.2 °F 14.3 °F 29.93 in NW 1.0 mph 2.0 mph 88% 0.00 in 0 W/m2
07:14 17.1 °F 14.2 °F 29.93 in NW 1.0 mph 2.0 mph 88% 0.00 in 0 W/m2
07:20 17.0 °F 14.1 °F 29.93 in NW 1.0 mph 1.0 mph 88% 0.00 in 5 W/m2
07:26 17.0 °F 13.8 °F 29.93 in WNW 1.0 mph 3.0 mph 87% 0.00 in 9 W/m2
07:32 17.0 °F 14.1 °F 29.93 in WNW 1.0 mph 2.0 mph 88% 0.00 in 19 W/m2
07:38 16.9 °F 14.0 °F 29.93 in WNW 1.0 mph 2.0 mph 88% 0.00 in 23 W/m2
07:44 16.9 °F 14.0 °F 29.93 in Calm   1.0 mph 88% 0.00 in 30 W/m2
07:50 16.9 °F 14.0 °F 29.93 in Calm     88% 0.00 in 47 W/m2
07:56 17.0 °F 14.1 °F 29.93 in WNW 1.0 mph 1.0 mph 88% 0.00 in 28 W/m2
08:02 17.2 °F 14.3 °F 29.94 in NW 1.0 mph 3.0 mph 88% 0.00 in 63 W/m2
08:08 17.5 °F 14.6 °F 29.94 in NW 2.0 mph 3.0 mph 88% 0.00 in 65 W/m2
08:14 17.9 °F 14.9 °F 29.94 in WNW 2.0 mph 3.0 mph 88% 0.00 in 44 W/m2
08:20 18.1 °F 14.9 °F 29.94 in WNW 3.0 mph 4.0 mph 87% 0.00 in 127 W/m2
08:26 18.5 °F 15.3 °F 29.94 in WNW 3.0 mph 6.0 mph 87% 0.00 in 174 W/m2
08:32 19.0 °F 15.8 °F 29.94 in NW 3.0 mph 6.0 mph 87% 0.00 in 174 W/m2
08:38 19.4 °F 16.2 °F 29.94 in North 4.0 mph 6.0 mph 87% 0.00 in 264 W/m2
08:44 19.8 °F 16.6 °F 29.94 in NNW 3.0 mph 4.0 mph 87% 0.00 in 146 W/m2
08:50 20.1 °F 16.9 °F 29.94 in NW 3.0 mph 4.0 mph 87% 0.00 in 149 W/m2
08:56 20.3 °F 17.0 °F 29.94 in West 4.0 mph 4.0 mph 87% 0.00 in 148 W/m2
09:02 20.4 °F 17.1 °F 29.94 in West 3.0 mph 7.0 mph 87% 0.00 in 88 W/m2
09:08 20.5 °F 17.2 °F 29.95 in WNW 3.0 mph 7.0 mph 87% 0.00 in 309 W/m2
09:14 20.8 °F 17.5 °F 29.95 in WNW 3.0 mph 5.0 mph 87% 0.00 in 302 W/m2
09:20 21.2 °F 17.9 °F 29.95 in NNW 4.0 mph 4.0 mph 87% 0.00 in 162 W/m2
09:26 21.3 °F 18.0 °F 29.95 in WNW 6.0 mph 6.0 mph 87% 0.00 in 338 W/m2
09:32 21.7 °F 18.4 °F 29.95 in WNW 5.0 mph 6.0 mph 87% 0.00 in 227 W/m2
09:38 21.9 °F 18.6 °F 29.95 in NW 5.0 mph 6.0 mph 87% 0.00 in 301 W/m2
09:44 22.2 °F 18.9 °F 29.95 in WNW 5.0 mph 7.0 mph 87% 0.00 in 278 W/m2
09:50 22.3 °F 19.0 °F 29.95 in NW 4.0 mph 4.0 mph 87% 0.00 in 251 W/m2
09:56 22.4 °F 19.1 °F 29.95 in NNW 5.0 mph 9.0 mph 87% 0.00 in 239 W/m2
10:02 22.3 °F 19.0 °F 29.95 in NNW 6.0 mph 9.0 mph 87% 0.00 in 279 W/m2
10:08 22.3 °F 19.0 °F 29.95 in WNW 5.0 mph 9.0 mph 87% 0.00 in 269 W/m2
10:14 22.4 °F 18.8 °F 29.96 in WNW 6.0 mph 6.0 mph 86% 0.00 in 499 W/m2
10:20 22.7 °F 19.4 °F 29.96 in NW 6.0 mph 10.0 mph 87% 0.00 in 487 W/m2
10:26 22.7 °F 19.4 °F 29.96 in WNW 7.0 mph 10.0 mph 87% 0.00 in 506 W/m2
10:32 22.9 °F 19.6 °F 29.96 in WNW 7.0 mph 7.0 mph 87% 0.00 in 682 W/m2
10:38 23.3 °F 20.0 °F 29.96 in WNW 7.0 mph 9.0 mph 87% 0.00 in 346 W/m2
10:44 23.2 °F 19.9 °F 29.96 in WNW 7.0 mph 10.0 mph 87% 0.00 in 357 W/m2
10:50 23.3 °F 20.0 °F 29.96 in NW 7.0 mph 7.0 mph 87% 0.00 in 659 W/m2
10:56 23.5 °F 20.2 °F 29.96 in WNW 7.0 mph 14.0 mph 87% 0.00 in 649 W/m2
11:02 23.4 °F 19.8 °F 29.96 in WNW 8.0 mph 8.0 mph 86% 0.00 in 427 W/m2
11:08 23.8 °F 20.5 °F 29.97 in WNW 7.0 mph 8.0 mph 87% 0.00 in 766 W/m2
11:14 24.0 °F 20.4 °F 29.96 in NW 7.0 mph 10.0 mph 86% 0.00 in 745 W/m2
11:20 24.2 °F 20.6 °F 29.97 in WNW 7.0 mph 10.0 mph 86% 0.00 in 666 W/m2
11:26 24.2 °F 20.6 °F 29.97 in WNW 7.0 mph 10.0 mph 86% 0.00 in 582 W/m2
11:32 24.1 °F 20.5 °F 29.97 in West 7.0 mph 10.0 mph 86% 0.00 in 533 W/m2
11:38 24.0 °F 20.1 °F 29.97 in WNW 8.0 mph 10.0 mph 85% 0.00 in 548 W/m2
11:44 24.2 °F 20.3 °F 29.97 in NW 6.0 mph 7.0 mph 85% 0.00 in 441 W/m2
11:50 24.4 °F 20.5 °F 29.97 in West 6.0 mph 7.0 mph 85% 0.00 in 462 W/m2
11:56 24.0 °F 20.1 °F 29.97 in WNW 8.0 mph 15.0 mph 85% 0.00 in 462 W/m2
12:02 24.0 °F 20.1 °F 29.97 in WNW 9.0 mph 13.0 mph 85% 0.00 in 543 W/m2
12:08 24.4 °F 20.5 °F 29.97 in NW 7.0 mph 13.0 mph 85% 0.00 in 531 W/m2
12:14 24.8 °F 20.9 °F 29.97 in WNW 6.0 mph 8.0 mph 85% 0.00 in 536 W/m2
12:20 25.0 °F 21.1 °F 29.97 in WNW 7.0 mph 7.0 mph 85% 0.00 in 570 W/m2
12:26 25.3 °F 21.1 °F 29.97 in WNW 7.0 mph 17.0 mph 84% 0.00 in 650 W/m2
12:32 25.3 °F 21.1 °F 29.97 in West 8.0 mph 8.0 mph 84% 0.00 in 633 W/m2
12:38 25.6 °F 21.4 °F 29.97 in NW 8.0 mph 9.0 mph 84% 0.00 in 635 W/m2
12:44 25.5 °F 21.3 °F 29.97 in NW 8.0 mph 9.0 mph 84% 0.00 in 624 W/m2
12:50 25.9 °F 21.7 °F 29.97 in WNW 8.0 mph 8.0 mph 84% 0.05 in 610 W/m2
12:56 25.9 °F 21.4 °F 29.97 in West 6.0 mph 11.0 mph 83% 0.05 in 494 W/m2
13:02 25.8 °F 21.3 °F 29.97 in NW 7.0 mph 7.0 mph 83% 0.09 in 404 W/m2
13:08 25.6 °F 20.9 °F 29.97 in West 8.0 mph 10.0 mph 82% 0.05 in 594 W/m2
13:14 25.9 °F 21.7 °F 29.97 in WNW 8.0 mph 9.0 mph 84% 0.00 in 749 W/m2
13:20 26.1 °F 21.9 °F 29.97 in West 8.0 mph 8.0 mph 84% 0.00 in 643 W/m2
13:26 26.0 °F 21.8 °F 29.97 in NW 9.0 mph 10.0 mph 84% 0.00 in 427 W/m2
13:32 26.2 °F 22.0 °F 29.97 in WNW 8.0 mph 12.0 mph 84% 0.04 in 513 W/m2
13:38 27.2 °F 22.4 °F 29.97 in WNW 8.0 mph 12.0 mph 82% 0.04 in 596 W/m2
13:44 27.1 °F 21.7 °F 29.97 in WNW 8.0 mph 11.0 mph 80% 0.04 in 338 W/m2
13:50 26.2 °F 21.5 °F 29.97 in WNW 8.0 mph 13.0 mph 82% 0.00 in 329 W/m2
13:56 26.3 °F 21.6 °F 29.97 in West 9.0 mph 13.0 mph 82% 0.00 in 355 W/m2
14:02 26.5 °F 21.5 °F 29.98 in WNW 8.0 mph 9.0 mph 81% 0.00 in 313 W/m2
14:08 26.5 °F 21.5 °F 29.97 in WNW 9.0 mph 17.0 mph 81% 0.00 in 478 W/m2
14:14 27.1 °F 21.7 °F 29.98 in WNW 9.0 mph 9.0 mph 80% 0.00 in 673 W/m2
14:20 27.8 °F 22.7 °F 29.97 in NW 7.0 mph 7.0 mph 81% 0.00 in 345 W/m2
14:26 28.3 °F 21.4 °F 29.98 in WNW 7.0 mph 14.0 mph 75% 0.00 in 919 W/m2
14:32 28.4 °F 20.5 °F 29.97 in NW 8.0 mph 8.0 mph 72% 0.00 in 889 W/m2
14:38 28.0 °F 21.1 °F 29.97 in WNW 8.0 mph 10.0 mph 75% 0.00 in 343 W/m2
14:44 28.1 °F 20.6 °F 29.98 in NW 8.0 mph 9.0 mph 73% 0.00 in 322 W/m2
14:56 29.1 °F 20.2 °F 29.97 in West 6.0 mph 10.0 mph 69% 0.00 in 515 W/m2
15:02 29.2 °F 19.9 °F 29.97 in WNW 8.0 mph 11.0 mph 68% 0.00 in 635 W/m2
15:08 29.2 °F 19.9 °F 29.97 in West 8.0 mph 11.0 mph 68% 0.00 in 515 W/m2
15:14 28.7 °F 20.1 °F 29.97 in WNW 8.0 mph 12.0 mph 70% 0.04 in 533 W/m2
15:20 28.9 °F 21.0 °F 29.97 in WNW 8.0 mph 8.0 mph 72% 0.04 in 404 W/m2
15:26 28.5 °F 20.6 °F 29.98 in WNW 8.0 mph 9.0 mph 72% 0.04 in 381 W/m2
15:32 28.7 °F 20.5 °F 29.98 in WNW 8.0 mph 8.0 mph 71% 0.00 in 350 W/m2
15:44 29.0 °F 20.8 °F 29.98 in NW 8.0 mph 11.0 mph 71% 0.00 in 308 W/m2
15:50 29.1 °F 21.5 °F 29.99 in WNW 7.0 mph 7.0 mph 73% 0.00 in 211 W/m2
15:56 29.2 °F 21.0 °F 29.99 in West 7.0 mph 10.0 mph 71% 0.00 in 265 W/m2
16:02 29.5 °F 20.9 °F 29.99 in WNW 7.0 mph 12.0 mph 70% 0.00 in 236 W/m2
16:08 29.5 °F 20.9 °F 29.99 in WNW 7.0 mph 12.0 mph 70% 0.00 in 218 W/m2
16:14 29.6 °F 21.3 °F 29.98 in West 7.0 mph 7.0 mph 71% 0.00 in 211 W/m2
16:20 29.6 °F 21.3 °F 29.99 in WNW 6.0 mph 6.0 mph 71% 0.00 in 148 W/m2
16:26 28.9 °F 20.0 °F 29.99 in West 7.0 mph 13.0 mph 69% 0.00 in 114 W/m2
16:32 29.1 °F 20.2 °F 29.99 in West 8.0 mph 10.0 mph 69% 0.00 in 171 W/m2
16:38 29.2 °F 20.3 °F 29.99 in West 7.0 mph 13.0 mph 69% 0.00 in 130 W/m2
16:44 29.1 °F 19.5 °F 29.99 in WNW 8.0 mph 12.0 mph 67% 0.00 in 121 W/m2
16:50 29.9 °F 21.0 °F 29.99 in WNW 8.0 mph 8.0 mph 69% 0.00 in 272 W/m2
16:56 30.0 °F 20.7 °F 29.99 in NW 7.0 mph 8.0 mph 68% 0.00 in 181 W/m2
17:02 30.1 °F 19.7 °F 29.99 in WNW 7.0 mph 7.0 mph 65% 0.00 in 171 W/m2
17:08 29.9 °F 19.9 °F 29.99 in WNW 8.0 mph 9.0 mph 66% 0.00 in 151 W/m2
17:14 30.1 °F 20.1 °F 29.99 in WNW 7.0 mph 10.0 mph 66% 0.00 in 206 W/m2
17:20 30.5 °F 19.4 °F 29.99 in WNW 8.0 mph 8.0 mph 63% 0.00 in 181 W/m2
17:26 30.6 °F 19.5 °F 29.99 in WNW 8.0 mph 11.0 mph 63% 0.00 in 181 W/m2
17:32 30.4 °F 18.5 °F 29.99 in WNW 7.0 mph 8.0 mph 61% 0.00 in 185 W/m2
17:38 30.2 °F 18.7 °F 29.99 in West 7.0 mph 8.0 mph 62% 0.00 in 186 W/m2
17:44 30.3 °F 19.6 °F 30.00 in NW 7.0 mph 8.0 mph 64% 0.00 in 128 W/m2
17:50 30.4 °F 19.7 °F 30.00 in NW 7.0 mph 7.0 mph 64% 0.00 in 232 W/m2
17:56 30.4 °F 19.7 °F 30.00 in West 6.0 mph 10.0 mph 64% 0.00 in 81 W/m2
18:02 30.3 °F 19.6 °F 30.00 in WNW 7.0 mph 9.0 mph 64% 0.00 in 63 W/m2
18:08 30.3 °F 19.2 °F 30.00 in WNW 7.0 mph 13.0 mph 63% 0.00 in 63 W/m2
18:14 30.3 °F 18.8 °F 30.00 in WNW 8.0 mph 11.0 mph 62% 0.00 in 47 W/m2
18:20 30.3 °F 19.2 °F 30.00 in NW 7.0 mph 7.0 mph 63% 0.00 in 42 W/m2
18:26 30.3 °F 19.2 °F 30.00 in NW 6.0 mph 7.0 mph 63% 0.00 in 40 W/m2
18:32 30.4 °F 19.3 °F 30.00 in WNW 6.0 mph 6.0 mph 63% 0.00 in 25 W/m2
18:38 30.4 °F 19.3 °F 30.01 in WNW 5.0 mph 7.0 mph 63% 0.00 in 21 W/m2
18:44 30.4 °F 19.3 °F 30.01 in WNW 4.0 mph 11.0 mph 63% 0.00 in 21 W/m2
18:50 30.4 °F 19.3 °F 30.01 in WNW 4.0 mph 5.0 mph 63% 0.00 in 16 W/m2
18:56 30.4 °F 19.3 °F 30.02 in WNW 5.0 mph 5.0 mph 63% 0.00 in 12 W/m2
19:02 30.4 °F 18.9 °F 30.02 in WNW 5.0 mph 8.0 mph 62% 0.00 in 9 W/m2
19:08 30.3 °F 18.8 °F 30.02 in West 5.0 mph 8.0 mph 62% 0.00 in 5 W/m2
19:14 30.3 °F 18.8 °F 30.02 in WNW 5.0 mph 6.0 mph 62% 0.00 in 0 W/m2
19:20 30.2 °F 18.0 °F 30.02 in WNW 5.0 mph 8.0 mph 60% 0.00 in 0 W/m2
19:26 30.1 °F 17.5 °F 30.02 in West 5.0 mph 8.0 mph 59% 0.00 in 0 W/m2
19:32 30.2 °F 16.8 °F 30.03 in West 5.0 mph 6.0 mph 57% 0.00 in 0 W/m2
19:38 30.0 °F 16.6 °F 30.03 in WNW 4.0 mph 6.0 mph 57% 0.00 in 0 W/m2
19:44 29.9 °F 16.5 °F 30.03 in WNW 4.0 mph 6.0 mph 57% 0.00 in 0 W/m2
19:50 29.7 °F 16.7 °F 30.03 in WNW 3.0 mph 3.0 mph 58% 0.00 in 0 W/m2
19:56 29.4 °F 16.0 °F 30.03 in WNW 3.0 mph 5.0 mph 57% 0.00 in 0 W/m2
20:02 29.1 °F 16.1 °F 30.03 in WNW 2.0 mph 6.0 mph 58% 0.00 in 0 W/m2
20:08 29.1 °F 16.1 °F 30.03 in WNW 2.0 mph 6.0 mph 58% 0.00 in 0 W/m2
20:14 29.3 °F 15.9 °F 30.03 in WNW 3.0 mph 6.0 mph 57% 0.00 in 0 W/m2
20:20 29.3 °F 15.5 °F 30.04 in WNW 3.0 mph 6.0 mph 56% 0.00 in 0 W/m2
20:26 29.1 °F 15.3 °F 30.05 in West 3.0 mph 6.0 mph 56% 0.00 in 0 W/m2
20:32 29.1 °F 14.9 °F 30.05 in NW 3.0 mph 4.0 mph 55% 0.00 in 0 W/m2
20:38 29.2 °F 15.0 °F 30.05 in WNW 3.0 mph 8.0 mph 55% 0.00 in 0 W/m2
20:44 29.0 °F 14.8 °F 30.05 in WNW 3.0 mph 3.0 mph 55% 0.00 in 0 W/m2
20:50 29.0 °F 14.8 °F 30.05 in WNW 3.0 mph 3.0 mph 55% 0.00 in 0 W/m2
20:56 29.0 °F 14.8 °F 30.05 in West 3.0 mph 6.0 mph 55% 0.00 in 0 W/m2
21:02 29.0 °F 14.8 °F 30.06 in NW 3.0 mph 4.0 mph 55% 0.00 in 0 W/m2
21:08 29.0 °F 15.2 °F 30.05 in WNW 3.0 mph 4.0 mph 56% 0.00 in 0 W/m2
21:14 28.9 °F 15.2 °F 30.06 in WNW 3.0 mph 3.0 mph 56% 0.00 in 0 W/m2
21:20 29.1 °F 14.9 °F 30.06 in WNW 4.0 mph 4.0 mph 55% 0.00 in 0 W/m2
21:26 29.1 °F 14.9 °F 30.06 in NW 5.0 mph 8.0 mph 55% 0.00 in 0 W/m2
21:32 29.3 °F 15.1 °F 30.06 in WNW 5.0 mph 6.0 mph 55% 0.00 in 0 W/m2
21:38 29.1 °F 15.3 °F 30.07 in WNW 4.0 mph 6.0 mph 56% 0.00 in 0 W/m2
21:44 28.8 °F 15.1 °F 30.07 in NW 3.0 mph 5.0 mph 56% 0.00 in 0 W/m2
21:50 28.4 °F 15.1 °F 30.07 in WNW 2.0 mph 3.0 mph 57% 0.00 in 0 W/m2
21:56 28.4 °F 15.5 °F 30.07 in WNW 3.0 mph 6.0 mph 58% 0.00 in 0 W/m2
22:02 28.5 °F 15.6 °F 30.08 in WNW 4.0 mph 8.0 mph 58% 0.00 in 0 W/m2
22:08 28.5 °F 15.6 °F 30.08 in WNW 3.0 mph 8.0 mph 58% 0.00 in 0 W/m2
22:14 28.5 °F 15.6 °F 30.08 in WNW 4.0 mph 6.0 mph 58% 0.00 in 0 W/m2
22:20 28.6 °F 15.7 °F 30.08 in WNW 4.0 mph 4.0 mph 58% 0.00 in 0 W/m2
22:26 28.7 °F 15.8 °F 30.08 in NW 5.0 mph 5.0 mph 58% 0.00 in 0 W/m2
22:32 28.6 °F 15.7 °F 30.08 in WNW 4.0 mph 4.0 mph 58% 0.00 in 0 W/m2
22:38 28.5 °F 15.6 °F 30.08 in WNW 4.0 mph 5.0 mph 58% 0.00 in 0 W/m2
22:44 28.3 °F 15.8 °F 30.08 in WNW 3.0 mph 5.0 mph 59% 0.00 in 0 W/m2
22:50 28.0 °F 15.5 °F 30.08 in WNW 2.0 mph 2.0 mph 59% 0.00 in 0 W/m2
22:56 27.8 °F 15.3 °F 30.08 in WNW 3.0 mph 3.0 mph 59% 0.00 in 0 W/m2
23:02 27.8 °F 15.3 °F 30.09 in West 3.0 mph 6.0 mph 59% 0.00 in 0 W/m2
23:08 28.0 °F 15.5 °F 30.09 in WNW 3.0 mph 7.0 mph 59% 0.00 in 0 W/m2
23:14 27.8 °F 15.7 °F 30.09 in West 3.0 mph 3.0 mph 60% 0.00 in 0 W/m2
23:22 27.7 °F 15.6 °F 30.09 in WNW 3.0 mph 5.0 mph 60% 0.00 in 0 W/m2
23:28 27.9 °F 15.8 °F 30.09 in WNW 4.0 mph 10.0 mph 60% 0.00 in 0 W/m2
23:34 27.7 °F 15.6 °F 30.09 in WNW 3.0 mph 3.0 mph 60% 0.00 in 0 W/m2
23:40 27.3 °F 15.6 °F 30.09 in WNW 2.0 mph 5.0 mph 61% 0.00 in 0 W/m2
23:46 27.3 °F 15.6 °F 30.09 in NW 2.0 mph 5.0 mph 61% 0.00 in 0 W/m2
23:52 27.3 °F 15.6 °F 30.10 in WNW 2.0 mph 2.0 mph 61% 0.00 in 0 W/m2
23:58 27.0 °F 15.7 °F 30.10 in WNW 2.0 mph 3.0 mph 62% 0.00 in 0 W/m2
Country Meadow, Clay, NY, USA
Compliments of Weather Underground - 2 mb